sensor_id;sensor_type;location;lat;lon;timestamp;P1;durP1;ratioP1;P2;durP2;ratioP2
11338;SDS011;5724;42.684;23.252;2022-07-05T00:01:01;4.18;;;3.50;;
11338;SDS011;5724;42.684;23.252;2022-07-05T00:03:27;4.57;;;3.25;;
11338;SDS011;5724;42.684;23.252;2022-07-05T00:05:53;3.83;;;3.50;;
11338;SDS011;5724;42.684;23.252;2022-07-05T00:08:19;4.50;;;3.90;;
11338;SDS011;5724;42.684;23.252;2022-07-05T00:10:45;3.55;;;3.33;;
11338;SDS011;5724;42.684;23.252;2022-07-05T00:13:11;3.88;;;3.58;;
11338;SDS011;5724;42.684;23.252;2022-07-05T00:15:37;4.00;;;3.72;;
11338;SDS011;5724;42.684;23.252;2022-07-05T00:18:03;4.30;;;3.13;;
11338;SDS011;5724;42.684;23.252;2022-07-05T00:20:28;3.63;;;3.42;;
11338;SDS011;5724;42.684;23.252;2022-07-05T00:22:54;3.50;;;3.30;;
11338;SDS011;5724;42.684;23.252;2022-07-05T00:25:19;6.55;;;3.70;;
11338;SDS011;5724;42.684;23.252;2022-07-05T00:27:45;3.90;;;3.50;;
11338;SDS011;5724;42.684;23.252;2022-07-05T00:30:11;4.90;;;4.05;;
11338;SDS011;5724;42.684;23.252;2022-07-05T00:32:37;4.65;;;3.72;;
11338;SDS011;5724;42.684;23.252;2022-07-05T00:35:04;5.05;;;4.03;;
11338;SDS011;5724;42.684;23.252;2022-07-05T00:37:30;4.63;;;4.05;;
11338;SDS011;5724;42.684;23.252;2022-07-05T00:39:55;4.70;;;4.25;;
11338;SDS011;5724;42.684;23.252;2022-07-05T00:42:21;4.93;;;3.88;;
11338;SDS011;5724;42.684;23.252;2022-07-05T00:44:46;4.53;;;4.13;;
11338;SDS011;5724;42.684;23.252;2022-07-05T00:47:12;4.35;;;4.05;;
11338;SDS011;5724;42.684;23.252;2022-07-05T00:49:38;7.68;;;3.95;;
11338;SDS011;5724;42.684;23.252;2022-07-05T00:52:05;4.18;;;3.88;;
11338;SDS011;5724;42.684;23.252;2022-07-05T00:54:35;4.45;;;4.15;;
11338;SDS011;5724;42.684;23.252;2022-07-05T00:57:02;4.47;;;3.40;;
11338;SDS011;5724;42.684;23.252;2022-07-05T00:59:28;4.20;;;3.90;;
11338;SDS011;5724;42.684;23.252;2022-07-05T01:01:55;4.38;;;3.90;;
11338;SDS011;5724;42.684;23.252;2022-07-05T01:04:21;3.80;;;3.50;;
11338;SDS011;5724;42.684;23.252;2022-07-05T01:06:47;4.25;;;3.92;;
11338;SDS011;5724;42.684;23.252;2022-07-05T01:09:15;5.95;;;3.80;;
11338;SDS011;5724;42.684;23.252;2022-07-05T01:11:44;4.07;;;3.88;;
11338;SDS011;5724;42.684;23.252;2022-07-05T01:14:11;4.35;;;3.95;;
11338;SDS011;5724;42.684;23.252;2022-07-05T01:16:40;4.93;;;4.53;;
11338;SDS011;5724;42.684;23.252;2022-07-05T01:19:06;4.30;;;4.00;;
11338;SDS011;5724;42.684;23.252;2022-07-05T01:21:33;5.28;;;3.90;;
11338;SDS011;5724;42.684;23.252;2022-07-05T01:24:02;4.95;;;3.83;;
11338;SDS011;5724;42.684;23.252;2022-07-05T01:26:29;5.68;;;3.78;;
11338;SDS011;5724;42.684;23.252;2022-07-05T01:28:55;3.70;;;3.60;;
11338;SDS011;5724;42.684;23.252;2022-07-05T01:31:20;4.20;;;3.90;;
11338;SDS011;5724;42.684;23.252;2022-07-05T01:33:46;4.40;;;4.10;;
11338;SDS011;5724;42.684;23.252;2022-07-05T01:36:12;4.40;;;3.80;;
11338;SDS011;5724;42.684;23.252;2022-07-05T01:38:38;4.40;;;4.10;;
11338;SDS011;5724;42.684;23.252;2022-07-05T01:41:04;4.15;;;3.85;;
11338;SDS011;5724;42.684;23.252;2022-07-05T01:43:29;4.28;;;4.07;;
11338;SDS011;5724;42.684;23.252;2022-07-05T01:45:56;4.80;;;4.30;;
11338;SDS011;5724;42.684;23.252;2022-07-05T01:48:26;5.40;;;3.92;;
11338;SDS011;5724;42.684;23.252;2022-07-05T01:50:54;4.40;;;4.13;;
11338;SDS011;5724;42.684;23.252;2022-07-05T01:53:28;4.15;;;3.80;;
11338;SDS011;5724;42.684;23.252;2022-07-05T01:56:01;4.50;;;3.80;;
11338;SDS011;5724;42.684;23.252;2022-07-05T01:58:29;3.92;;;3.63;;
11338;SDS011;5724;42.684;23.252;2022-07-05T02:00:55;4.80;;;3.53;;
11338;SDS011;5724;42.684;23.252;2022-07-05T02:03:22;4.53;;;3.17;;
11338;SDS011;5724;42.684;23.252;2022-07-05T02:05:49;4.00;;;3.80;;
11338;SDS011;5724;42.684;23.252;2022-07-05T02:08:15;4.15;;;3.90;;
11338;SDS011;5724;42.684;23.252;2022-07-05T02:10:41;4.40;;;3.55;;
11338;SDS011;5724;42.684;23.252;2022-07-05T02:13:08;5.00;;;4.20;;
11338;SDS011;5724;42.684;23.252;2022-07-05T02:15:35;4.80;;;4.38;;
11338;SDS011;5724;42.684;23.252;2022-07-05T02:18:03;3.97;;;3.67;;
11338;SDS011;5724;42.684;23.252;2022-07-05T02:20:29;5.68;;;4.00;;
11338;SDS011;5724;42.684;23.252;2022-07-05T02:22:56;4.65;;;3.65;;
11338;SDS011;5724;42.684;23.252;2022-07-05T02:25:21;4.32;;;3.85;;
11338;SDS011;5724;42.684;23.252;2022-07-05T02:27:47;3.78;;;3.58;;
11338;SDS011;5724;42.684;23.252;2022-07-05T02:30:14;4.30;;;4.00;;
11338;SDS011;5724;42.684;23.252;2022-07-05T02:32:40;4.43;;;3.67;;
11338;SDS011;5724;42.684;23.252;2022-07-05T02:35:06;4.22;;;3.90;;
11338;SDS011;5724;42.684;23.252;2022-07-05T02:37:34;4.30;;;3.92;;
11338;SDS011;5724;42.684;23.252;2022-07-05T02:39:59;5.80;;;4.03;;
11338;SDS011;5724;42.684;23.252;2022-07-05T02:42:25;4.80;;;3.85;;
11338;SDS011;5724;42.684;23.252;2022-07-05T02:44:51;4.07;;;3.75;;
11338;SDS011;5724;42.684;23.252;2022-07-05T02:47:16;4.32;;;3.58;;
11338;SDS011;5724;42.684;23.252;2022-07-05T02:49:42;6.03;;;3.97;;
11338;SDS011;5724;42.684;23.252;2022-07-05T02:52:07;4.22;;;3.88;;
11338;SDS011;5724;42.684;23.252;2022-07-05T02:54:33;4.00;;;3.80;;
11338;SDS011;5724;42.684;23.252;2022-07-05T02:56:59;5.10;;;3.58;;
11338;SDS011;5724;42.684;23.252;2022-07-05T02:59:25;4.25;;;3.78;;
11338;SDS011;5724;42.684;23.252;2022-07-05T03:01:50;4.07;;;3.70;;
11338;SDS011;5724;42.684;23.252;2022-07-05T03:04:16;3.90;;;3.58;;
11338;SDS011;5724;42.684;23.252;2022-07-05T03:06:42;5.28;;;3.58;;
11338;SDS011;5724;42.684;23.252;2022-07-05T03:09:07;3.70;;;3.40;;
11338;SDS011;5724;42.684;23.252;2022-07-05T03:11:33;3.80;;;3.60;;
11338;SDS011;5724;42.684;23.252;2022-07-05T03:13:58;3.38;;;3.17;;
11338;SDS011;5724;42.684;23.252;2022-07-05T03:16:23;4.50;;;4.00;;
11338;SDS011;5724;42.684;23.252;2022-07-05T03:18:52;8.10;;;4.03;;
11338;SDS011;5724;42.684;23.252;2022-07-05T03:21:18;4.22;;;3.92;;
11338;SDS011;5724;42.684;23.252;2022-07-05T03:23:43;6.53;;;3.90;;
11338;SDS011;5724;42.684;23.252;2022-07-05T03:26:09;5.72;;;4.50;;
11338;SDS011;5724;42.684;23.252;2022-07-05T03:28:34;4.45;;;4.15;;
11338;SDS011;5724;42.684;23.252;2022-07-05T03:31:00;4.82;;;4.50;;
11338;SDS011;5724;42.684;23.252;2022-07-05T03:33:26;7.82;;;4.20;;
11338;SDS011;5724;42.684;23.252;2022-07-05T03:35:52;6.82;;;4.15;;
11338;SDS011;5724;42.684;23.252;2022-07-05T03:38:17;8.25;;;4.30;;
11338;SDS011;5724;42.684;23.252;2022-07-05T03:40:43;5.88;;;4.28;;
11338;SDS011;5724;42.684;23.252;2022-07-05T03:43:09;4.30;;;3.90;;
11338;SDS011;5724;42.684;23.252;2022-07-05T03:45:34;4.78;;;4.38;;
11338;SDS011;5724;42.684;23.252;2022-07-05T03:48:00;5.82;;;5.13;;
11338;SDS011;5724;42.684;23.252;2022-07-05T03:50:26;5.63;;;5.10;;
11338;SDS011;5724;42.684;23.252;2022-07-05T03:52:52;4.85;;;4.35;;
11338;SDS011;5724;42.684;23.252;2022-07-05T03:55:18;7.05;;;4.40;;
11338;SDS011;5724;42.684;23.252;2022-07-05T03:57:44;3.70;;;3.40;;
11338;SDS011;5724;42.684;23.252;2022-07-05T04:00:10;4.55;;;3.20;;
11338;SDS011;5724;42.684;23.252;2022-07-05T04:02:37;3.38;;;3.13;;
11338;SDS011;5724;42.684;23.252;2022-07-05T04:05:02;3.63;;;3.17;;
11338;SDS011;5724;42.684;23.252;2022-07-05T04:07:28;3.88;;;3.30;;
11338;SDS011;5724;42.684;23.252;2022-07-05T04:09:53;9.80;;;3.97;;
11338;SDS011;5724;42.684;23.252;2022-07-05T04:12:19;10.07;;;7.65;;
11338;SDS011;5724;42.684;23.252;2022-07-05T04:14:44;3.40;;;3.20;;
11338;SDS011;5724;42.684;23.252;2022-07-05T04:17:10;4.95;;;3.80;;
11338;SDS011;5724;42.684;23.252;2022-07-05T04:19:35;3.72;;;3.53;;
11338;SDS011;5724;42.684;23.252;2022-07-05T04:22:01;4.72;;;3.58;;
11338;SDS011;5724;42.684;23.252;2022-07-05T04:24:27;3.55;;;3.25;;
11338;SDS011;5724;42.684;23.252;2022-07-05T04:26:52;3.72;;;3.42;;
11338;SDS011;5724;42.684;23.252;2022-07-05T04:29:18;3.83;;;3.50;;
11338;SDS011;5724;42.684;23.252;2022-07-05T04:31:43;3.85;;;3.30;;
11338;SDS011;5724;42.684;23.252;2022-07-05T04:34:09;3.97;;;3.67;;
11338;SDS011;5724;42.684;23.252;2022-07-05T04:36:34;3.42;;;3.20;;
11338;SDS011;5724;42.684;23.252;2022-07-05T04:39:03;4.10;;;3.70;;
11338;SDS011;5724;42.684;23.252;2022-07-05T04:41:29;4.30;;;3.35;;
11338;SDS011;5724;42.684;23.252;2022-07-05T04:44:13;4.90;;;3.92;;
11338;SDS011;5724;42.684;23.252;2022-07-05T04:46:38;13.43;;;4.03;;
11338;SDS011;5724;42.684;23.252;2022-07-05T04:49:04;4.07;;;3.75;;
11338;SDS011;5724;42.684;23.252;2022-07-05T04:51:29;3.53;;;3.25;;
11338;SDS011;5724;42.684;23.252;2022-07-05T04:53:55;5.32;;;3.72;;
11338;SDS011;5724;42.684;23.252;2022-07-05T04:56:21;7.47;;;4.05;;
11338;SDS011;5724;42.684;23.252;2022-07-05T04:58:46;6.10;;;3.97;;
11338;SDS011;5724;42.684;23.252;2022-07-05T05:01:12;4.97;;;4.20;;
11338;SDS011;5724;42.684;23.252;2022-07-05T05:03:37;5.25;;;3.75;;
11338;SDS011;5724;42.684;23.252;2022-07-05T05:06:02;9.32;;;3.90;;
11338;SDS011;5724;42.684;23.252;2022-07-05T05:08:28;3.97;;;3.78;;
11338;SDS011;5724;42.684;23.252;2022-07-05T05:10:53;4.30;;;4.00;;
11338;SDS011;5724;42.684;23.252;2022-07-05T05:13:19;3.90;;;3.70;;
11338;SDS011;5724;42.684;23.252;2022-07-05T05:15:44;3.90;;;3.53;;
11338;SDS011;5724;42.684;23.252;2022-07-05T05:18:10;4.05;;;3.65;;
11338;SDS011;5724;42.684;23.252;2022-07-05T05:20:36;3.90;;;3.47;;
11338;SDS011;5724;42.684;23.252;2022-07-05T05:23:01;3.80;;;3.50;;
11338;SDS011;5724;42.684;23.252;2022-07-05T05:25:27;4.25;;;3.90;;
11338;SDS011;5724;42.684;23.252;2022-07-05T05:27:55;4.07;;;3.70;;
11338;SDS011;5724;42.684;23.252;2022-07-05T05:30:21;6.90;;;4.22;;
11338;SDS011;5724;42.684;23.252;2022-07-05T05:32:46;6.05;;;3.88;;
11338;SDS011;5724;42.684;23.252;2022-07-05T05:35:12;4.57;;;3.70;;
11338;SDS011;5724;42.684;23.252;2022-07-05T05:37:44;4.15;;;3.78;;
11338;SDS011;5724;42.684;23.252;2022-07-05T05:40:17;3.70;;;3.50;;
11338;SDS011;5724;42.684;23.252;2022-07-05T05:42:44;3.47;;;3.25;;
11338;SDS011;5724;42.684;23.252;2022-07-05T05:45:10;4.57;;;3.42;;
11338;SDS011;5724;42.684;23.252;2022-07-05T05:47:52;4.07;;;3.78;;
11338;SDS011;5724;42.684;23.252;2022-07-05T05:50:19;4.18;;;3.83;;
11338;SDS011;5724;42.684;23.252;2022-07-05T05:52:45;3.70;;;3.40;;
11338;SDS011;5724;42.684;23.252;2022-07-05T05:55:10;6.10;;;3.40;;
11338;SDS011;5724;42.684;23.252;2022-07-05T05:57:36;6.13;;;3.15;;
11338;SDS011;5724;42.684;23.252;2022-07-05T06:00:03;6.32;;;3.67;;
11338;SDS011;5724;42.684;23.252;2022-07-05T06:02:29;5.68;;;3.17;;
11338;SDS011;5724;42.684;23.252;2022-07-05T06:04:55;4.53;;;3.03;;
11338;SDS011;5724;42.684;23.252;2022-07-05T06:07:20;4.43;;;3.20;;
11338;SDS011;5724;42.684;23.252;2022-07-05T06:09:46;3.92;;;3.58;;
11338;SDS011;5724;42.684;23.252;2022-07-05T06:12:11;4.90;;;3.35;;
11338;SDS011;5724;42.684;23.252;2022-07-05T06:14:37;3.42;;;3.17;;
11338;SDS011;5724;42.684;23.252;2022-07-05T06:17:02;3.40;;;3.03;;
11338;SDS011;5724;42.684;23.252;2022-07-05T06:19:28;5.13;;;4.20;;
11338;SDS011;5724;42.684;23.252;2022-07-05T06:21:53;4.20;;;3.30;;
11338;SDS011;5724;42.684;23.252;2022-07-05T06:24:19;5.18;;;2.85;;
11338;SDS011;5724;42.684;23.252;2022-07-05T06:26:44;3.58;;;3.30;;
11338;SDS011;5724;42.684;23.252;2022-07-05T06:29:10;3.65;;;3.40;;
11338;SDS011;5724;42.684;23.252;2022-07-05T06:31:35;3.30;;;3.10;;
11338;SDS011;5724;42.684;23.252;2022-07-05T06:34:01;4.82;;;3.40;;
11338;SDS011;5724;42.684;23.252;2022-07-05T06:36:26;6.82;;;3.17;;
11338;SDS011;5724;42.684;23.252;2022-07-05T06:38:51;4.43;;;3.38;;
11338;SDS011;5724;42.684;23.252;2022-07-05T06:41:17;7.70;;;3.40;;
11338;SDS011;5724;42.684;23.252;2022-07-05T06:43:42;3.38;;;3.08;;
11338;SDS011;5724;42.684;23.252;2022-07-05T06:46:08;3.88;;;3.50;;
11338;SDS011;5724;42.684;23.252;2022-07-05T06:48:33;6.72;;;5.80;;
11338;SDS011;5724;42.684;23.252;2022-07-05T06:50:59;4.35;;;3.40;;
11338;SDS011;5724;42.684;23.252;2022-07-05T06:53:24;3.42;;;2.88;;
11338;SDS011;5724;42.684;23.252;2022-07-05T06:55:50;5.55;;;3.50;;
11338;SDS011;5724;42.684;23.252;2022-07-05T06:58:15;4.43;;;3.92;;
11338;SDS011;5724;42.684;23.252;2022-07-05T07:00:41;3.78;;;3.33;;
11338;SDS011;5724;42.684;23.252;2022-07-05T07:03:08;5.53;;;3.63;;
11338;SDS011;5724;42.684;23.252;2022-07-05T07:05:33;3.58;;;3.38;;
11338;SDS011;5724;42.684;23.252;2022-07-05T07:07:59;4.85;;;3.45;;
11338;SDS011;5724;42.684;23.252;2022-07-05T07:10:42;6.40;;;3.38;;
11338;SDS011;5724;42.684;23.252;2022-07-05T07:13:08;6.88;;;3.55;;
11338;SDS011;5724;42.684;23.252;2022-07-05T07:15:34;4.60;;;3.20;;
11338;SDS011;5724;42.684;23.252;2022-07-05T07:17:59;4.43;;;3.40;;
11338;SDS011;5724;42.684;23.252;2022-07-05T07:20:25;5.53;;;3.40;;
11338;SDS011;5724;42.684;23.252;2022-07-05T07:22:51;10.63;;;3.50;;
11338;SDS011;5724;42.684;23.252;2022-07-05T07:25:17;6.35;;;3.50;;
11338;SDS011;5724;42.684;23.252;2022-07-05T07:27:45;4.43;;;3.30;;
11338;SDS011;5724;42.684;23.252;2022-07-05T07:30:16;5.13;;;3.25;;
11338;SDS011;5724;42.684;23.252;2022-07-05T07:32:42;6.28;;;3.40;;
11338;SDS011;5724;42.684;23.252;2022-07-05T07:35:09;7.93;;;3.45;;
11338;SDS011;5724;42.684;23.252;2022-07-05T07:37:35;5.70;;;2.88;;
11338;SDS011;5724;42.684;23.252;2022-07-05T07:40:05;4.90;;;3.35;;
11338;SDS011;5724;42.684;23.252;2022-07-05T07:42:31;7.13;;;3.08;;
11338;SDS011;5724;42.684;23.252;2022-07-05T07:44:58;7.82;;;2.90;;
11338;SDS011;5724;42.684;23.252;2022-07-05T07:47:24;4.80;;;3.05;;
11338;SDS011;5724;42.684;23.252;2022-07-05T07:49:50;4.78;;;3.33;;
11338;SDS011;5724;42.684;23.252;2022-07-05T07:52:15;6.68;;;3.15;;
11338;SDS011;5724;42.684;23.252;2022-07-05T07:54:41;2.90;;;2.67;;
11338;SDS011;5724;42.684;23.252;2022-07-05T07:57:06;3.97;;;2.90;;
11338;SDS011;5724;42.684;23.252;2022-07-05T07:59:32;8.40;;;3.03;;
11338;SDS011;5724;42.684;23.252;2022-07-05T08:01:58;3.67;;;3.30;;
11338;SDS011;5724;42.684;23.252;2022-07-05T08:04:23;6.65;;;3.53;;
11338;SDS011;5724;42.684;23.252;2022-07-05T08:06:49;5.20;;;2.88;;
11338;SDS011;5724;42.684;23.252;2022-07-05T08:09:14;3.42;;;2.90;;
11338;SDS011;5724;42.684;23.252;2022-07-05T08:11:40;10.60;;;4.03;;
11338;SDS011;5724;42.684;23.252;2022-07-05T08:14:06;3.90;;;3.55;;
11338;SDS011;5724;42.684;23.252;2022-07-05T08:16:31;5.35;;;3.47;;
11338;SDS011;5724;42.684;23.252;2022-07-05T08:18:57;6.70;;;3.65;;
11338;SDS011;5724;42.684;23.252;2022-07-05T08:21:43;4.07;;;3.35;;
11338;SDS011;5724;42.684;23.252;2022-07-05T08:24:09;5.80;;;3.22;;
11338;SDS011;5724;42.684;23.252;2022-07-05T08:26:37;6.50;;;3.72;;
11338;SDS011;5724;42.684;23.252;2022-07-05T08:29:04;4.60;;;3.80;;
11338;SDS011;5724;42.684;23.252;2022-07-05T08:31:33;4.32;;;3.92;;
11338;SDS011;5724;42.684;23.252;2022-07-05T08:34:04;8.43;;;3.35;;
11338;SDS011;5724;42.684;23.252;2022-07-05T08:36:30;7.05;;;4.15;;
11338;SDS011;5724;42.684;23.252;2022-07-05T08:38:56;6.15;;;3.70;;
11338;SDS011;5724;42.684;23.252;2022-07-05T08:41:22;5.03;;;3.30;;
11338;SDS011;5724;42.684;23.252;2022-07-05T08:43:48;6.57;;;3.40;;
11338;SDS011;5724;42.684;23.252;2022-07-05T08:46:17;4.97;;;3.83;;
11338;SDS011;5724;42.684;23.252;2022-07-05T08:48:44;5.18;;;4.35;;
11338;SDS011;5724;42.684;23.252;2022-07-05T08:53:42;6.65;;;4.15;;
11338;SDS011;5724;42.684;23.252;2022-07-05T08:56:08;4.78;;;4.28;;
11338;SDS011;5724;42.684;23.252;2022-07-05T08:58:35;5.40;;;3.85;;
11338;SDS011;5724;42.684;23.252;2022-07-05T09:01:02;5.13;;;4.30;;
11338;SDS011;5724;42.684;23.252;2022-07-05T09:03:31;6.05;;;4.38;;
11338;SDS011;5724;42.684;23.252;2022-07-05T09:05:59;6.25;;;4.78;;
11338;SDS011;5724;42.684;23.252;2022-07-05T09:08:26;5.70;;;4.40;;
11338;SDS011;5724;42.684;23.252;2022-07-05T09:10:54;7.47;;;4.45;;
11338;SDS011;5724;42.684;23.252;2022-07-05T09:13:20;8.20;;;5.07;;
11338;SDS011;5724;42.684;23.252;2022-07-05T09:15:45;5.13;;;4.65;;
11338;SDS011;5724;42.684;23.252;2022-07-05T09:18:11;9.70;;;4.70;;
11338;SDS011;5724;42.684;23.252;2022-07-05T09:20:37;5.18;;;4.88;;
11338;SDS011;5724;42.684;23.252;2022-07-05T09:23:02;5.15;;;4.55;;
11338;SDS011;5724;42.684;23.252;2022-07-05T09:28:01;6.35;;;4.85;;
11338;SDS011;5724;42.684;23.252;2022-07-05T09:30:37;7.47;;;4.88;;
11338;SDS011;5724;42.684;23.252;2022-07-05T09:35:30;6.57;;;4.97;;
11338;SDS011;5724;42.684;23.252;2022-07-05T09:37:59;8.13;;;5.03;;
11338;SDS011;5724;42.684;23.252;2022-07-05T09:40:29;5.50;;;4.90;;
11338;SDS011;5724;42.684;23.252;2022-07-05T09:43:10;5.43;;;5.00;;
11338;SDS011;5724;42.684;23.252;2022-07-05T09:45:37;6.13;;;4.82;;
11338;SDS011;5724;42.684;23.252;2022-07-05T09:48:03;7.78;;;5.03;;
11338;SDS011;5724;42.684;23.252;2022-07-05T09:50:35;5.18;;;4.63;;
11338;SDS011;5724;42.684;23.252;2022-07-05T09:53:01;6.22;;;5.50;;
11338;SDS011;5724;42.684;23.252;2022-07-05T09:55:27;6.53;;;4.82;;
11338;SDS011;5724;42.684;23.252;2022-07-05T09:57:53;5.60;;;4.65;;
11338;SDS011;5724;42.684;23.252;2022-07-05T10:00:20;6.07;;;5.28;;
11338;SDS011;5724;42.684;23.252;2022-07-05T10:02:47;6.88;;;5.43;;
11338;SDS011;5724;42.684;23.252;2022-07-05T10:05:26;5.60;;;5.10;;
11338;SDS011;5724;42.684;23.252;2022-07-05T10:07:56;5.43;;;5.10;;
11338;SDS011;5724;42.684;23.252;2022-07-05T10:10:29;6.93;;;5.03;;
11338;SDS011;5724;42.684;23.252;2022-07-05T10:12:57;8.07;;;5.57;;
11338;SDS011;5724;42.684;23.252;2022-07-05T10:15:30;5.57;;;5.00;;
11338;SDS011;5724;42.684;23.252;2022-07-05T10:18:03;9.43;;;5.60;;
11338;SDS011;5724;42.684;23.252;2022-07-05T10:20:33;6.72;;;5.57;;
11338;SDS011;5724;42.684;23.252;2022-07-05T10:25:38;6.65;;;4.85;;
11338;SDS011;5724;42.684;23.252;2022-07-05T10:28:05;6.97;;;5.28;;
11338;SDS011;5724;42.684;23.252;2022-07-05T10:30:32;7.35;;;5.40;;
11338;SDS011;5724;42.684;23.252;2022-07-05T10:32:59;5.57;;;5.15;;
11338;SDS011;5724;42.684;23.252;2022-07-05T10:35:26;7.25;;;5.25;;
11338;SDS011;5724;42.684;23.252;2022-07-05T10:37:52;7.95;;;5.07;;
11338;SDS011;5724;42.684;23.252;2022-07-05T10:40:18;8.70;;;5.30;;
11338;SDS011;5724;42.684;23.252;2022-07-05T10:42:51;7.32;;;5.22;;
11338;SDS011;5724;42.684;23.252;2022-07-05T10:50:48;8.05;;;5.43;;
11338;SDS011;5724;42.684;23.252;2022-07-05T10:55:56;5.47;;;4.90;;
11338;SDS011;5724;42.684;23.252;2022-07-05T10:58:35;5.85;;;5.32;;
11338;SDS011;5724;42.684;23.252;2022-07-05T11:03:45;5.57;;;4.93;;
11338;SDS011;5724;42.684;23.252;2022-07-05T11:06:19;6.65;;;5.57;;
11338;SDS011;5724;42.684;23.252;2022-07-05T11:11:32;6.07;;;5.47;;
11338;SDS011;5724;42.684;23.252;2022-07-05T11:13:59;7.72;;;5.20;;
11338;SDS011;5724;42.684;23.252;2022-07-05T11:16:32;9.93;;;5.45;;
11338;SDS011;5724;42.684;23.252;2022-07-05T11:24:26;4.97;;;4.70;;
11338;SDS011;5724;42.684;23.252;2022-07-05T11:27:12;5.13;;;4.82;;
11338;SDS011;5724;42.684;23.252;2022-07-05T11:32:11;5.60;;;5.10;;
11338;SDS011;5724;42.684;23.252;2022-07-05T11:34:40;6.07;;;5.43;;
11338;SDS011;5724;42.684;23.252;2022-07-05T11:39:41;6.57;;;5.38;;
11338;SDS011;5724;42.684;23.252;2022-07-05T11:42:10;5.18;;;4.97;;
11338;SDS011;5724;42.684;23.252;2022-07-05T11:44:44;5.60;;;5.20;;
11338;SDS011;5724;42.684;23.252;2022-07-05T11:47:11;5.75;;;5.18;;
11338;SDS011;5724;42.684;23.252;2022-07-05T11:49:38;5.32;;;4.90;;
11338;SDS011;5724;42.684;23.252;2022-07-05T11:52:04;7.22;;;5.43;;
11338;SDS011;5724;42.684;23.252;2022-07-05T11:54:30;6.13;;;5.53;;
11338;SDS011;5724;42.684;23.252;2022-07-05T11:57:01;5.13;;;4.82;;
11338;SDS011;5724;42.684;23.252;2022-07-05T11:59:27;5.40;;;4.95;;
11338;SDS011;5724;42.684;23.252;2022-07-05T12:01:53;6.00;;;5.50;;
11338;SDS011;5724;42.684;23.252;2022-07-05T12:04:22;7.00;;;5.78;;
11338;SDS011;5724;42.684;23.252;2022-07-05T12:06:48;5.97;;;5.55;;
11338;SDS011;5724;42.684;23.252;2022-07-05T12:09:14;6.05;;;5.65;;
11338;SDS011;5724;42.684;23.252;2022-07-05T12:11:53;6.63;;;5.57;;
11338;SDS011;5724;42.684;23.252;2022-07-05T12:14:45;6.10;;;4.85;;
11338;SDS011;5724;42.684;23.252;2022-07-05T12:17:12;6.05;;;5.65;;
11338;SDS011;5724;42.684;23.252;2022-07-05T12:19:42;5.57;;;5.18;;
11338;SDS011;5724;42.684;23.252;2022-07-05T12:22:10;5.28;;;4.97;;
11338;SDS011;5724;42.684;23.252;2022-07-05T12:24:35;6.07;;;5.70;;
11338;SDS011;5724;42.684;23.252;2022-07-05T12:27:02;5.82;;;5.20;;
11338;SDS011;5724;42.684;23.252;2022-07-05T12:29:28;7.40;;;5.15;;
11338;SDS011;5724;42.684;23.252;2022-07-05T12:32:05;6.05;;;5.35;;
11338;SDS011;5724;42.684;23.252;2022-07-05T12:34:34;7.45;;;4.88;;
11338;SDS011;5724;42.684;23.252;2022-07-05T12:36:59;5.90;;;4.72;;
11338;SDS011;5724;42.684;23.252;2022-07-05T12:39:25;5.43;;;4.90;;
11338;SDS011;5724;42.684;23.252;2022-07-05T12:41:51;5.25;;;4.70;;
11338;SDS011;5724;42.684;23.252;2022-07-05T12:44:20;5.10;;;4.80;;
11338;SDS011;5724;42.684;23.252;2022-07-05T12:46:46;5.63;;;5.18;;
11338;SDS011;5724;42.684;23.252;2022-07-05T12:49:14;5.38;;;4.97;;
11338;SDS011;5724;42.684;23.252;2022-07-05T12:51:41;5.38;;;4.97;;
11338;SDS011;5724;42.684;23.252;2022-07-05T12:54:08;7.15;;;4.80;;
11338;SDS011;5724;42.684;23.252;2022-07-05T12:57:02;6.30;;;5.70;;
11338;SDS011;5724;42.684;23.252;2022-07-05T13:00:05;5.88;;;5.45;;
11338;SDS011;5724;42.684;23.252;2022-07-05T13:02:36;5.65;;;5.25;;
11338;SDS011;5724;42.684;23.252;2022-07-05T13:05:19;5.22;;;4.82;;
11338;SDS011;5724;42.684;23.252;2022-07-05T13:07:46;5.15;;;4.85;;
11338;SDS011;5724;42.684;23.252;2022-07-05T13:10:15;5.35;;;5.03;;
11338;SDS011;5724;42.684;23.252;2022-07-05T13:12:43;5.35;;;5.05;;
11338;SDS011;5724;42.684;23.252;2022-07-05T13:15:09;5.32;;;5.03;;
11338;SDS011;5724;42.684;23.252;2022-07-05T13:17:36;5.50;;;5.20;;
11338;SDS011;5724;42.684;23.252;2022-07-05T13:20:01;5.95;;;5.40;;
11338;SDS011;5724;42.684;23.252;2022-07-05T13:22:28;5.13;;;4.90;;
11338;SDS011;5724;42.684;23.252;2022-07-05T13:24:54;5.05;;;4.72;;
11338;SDS011;5724;42.684;23.252;2022-07-05T13:27:19;5.60;;;5.25;;
11338;SDS011;5724;42.684;23.252;2022-07-05T13:29:45;6.25;;;5.45;;
11338;SDS011;5724;42.684;23.252;2022-07-05T13:32:13;6.40;;;5.80;;
11338;SDS011;5724;42.684;23.252;2022-07-05T13:34:42;5.63;;;5.15;;
11338;SDS011;5724;42.684;23.252;2022-07-05T13:37:10;5.75;;;5.32;;
11338;SDS011;5724;42.684;23.252;2022-07-05T13:39:36;5.97;;;5.40;;
11338;SDS011;5724;42.684;23.252;2022-07-05T13:42:03;5.20;;;4.85;;
11338;SDS011;5724;42.684;23.252;2022-07-05T13:44:30;7.07;;;5.00;;
11338;SDS011;5724;42.684;23.252;2022-07-05T13:46:56;5.53;;;5.13;;
11338;SDS011;5724;42.684;23.252;2022-07-05T13:49:22;7.15;;;5.50;;
11338;SDS011;5724;42.684;23.252;2022-07-05T13:51:47;5.68;;;5.10;;
11338;SDS011;5724;42.684;23.252;2022-07-05T13:54:13;5.20;;;4.90;;
11338;SDS011;5724;42.684;23.252;2022-07-05T13:56:39;5.97;;;5.45;;
11338;SDS011;5724;42.684;23.252;2022-07-05T13:59:05;7.03;;;5.10;;
11338;SDS011;5724;42.684;23.252;2022-07-05T14:01:31;5.90;;;5.50;;
11338;SDS011;5724;42.684;23.252;2022-07-05T14:03:58;7.55;;;5.70;;
11338;SDS011;5724;42.684;23.252;2022-07-05T14:06:25;5.28;;;5.00;;
11338;SDS011;5724;42.684;23.252;2022-07-05T14:08:51;6.85;;;6.30;;
11338;SDS011;5724;42.684;23.252;2022-07-05T14:11:17;5.80;;;5.50;;
11338;SDS011;5724;42.684;23.252;2022-07-05T14:13:43;8.35;;;7.60;;
11338;SDS011;5724;42.684;23.252;2022-07-05T14:16:08;12.45;;;11.38;;
11338;SDS011;5724;42.684;23.252;2022-07-05T14:18:34;5.88;;;5.57;;
11338;SDS011;5724;42.684;23.252;2022-07-05T14:21:00;5.95;;;5.40;;
11338;SDS011;5724;42.684;23.252;2022-07-05T14:23:26;5.57;;;5.13;;
11338;SDS011;5724;42.684;23.252;2022-07-05T14:25:51;6.10;;;5.50;;
11338;SDS011;5724;42.684;23.252;2022-07-05T14:28:17;5.50;;;5.10;;
11338;SDS011;5724;42.684;23.252;2022-07-05T14:30:43;6.35;;;5.80;;
11338;SDS011;5724;42.684;23.252;2022-07-05T14:33:10;5.50;;;5.20;;
11338;SDS011;5724;42.684;23.252;2022-07-05T14:35:37;10.93;;;5.90;;
11338;SDS011;5724;42.684;23.252;2022-07-05T14:38:03;6.07;;;5.47;;
11338;SDS011;5724;42.684;23.252;2022-07-05T14:40:29;5.90;;;5.38;;
11338;SDS011;5724;42.684;23.252;2022-07-05T14:42:56;6.20;;;5.78;;
11338;SDS011;5724;42.684;23.252;2022-07-05T14:45:23;5.47;;;5.18;;
11338;SDS011;5724;42.684;23.252;2022-07-05T14:47:49;6.32;;;5.80;;
11338;SDS011;5724;42.684;23.252;2022-07-05T14:50:15;6.53;;;5.20;;
11338;SDS011;5724;42.684;23.252;2022-07-05T14:52:41;5.32;;;4.82;;
11338;SDS011;5724;42.684;23.252;2022-07-05T14:55:07;6.05;;;5.40;;
11338;SDS011;5724;42.684;23.252;2022-07-05T14:57:34;6.45;;;5.22;;
11338;SDS011;5724;42.684;23.252;2022-07-05T15:00:00;5.28;;;4.82;;
11338;SDS011;5724;42.684;23.252;2022-07-05T15:02:26;5.22;;;4.78;;
11338;SDS011;5724;42.684;23.252;2022-07-05T15:04:51;5.65;;;5.10;;
11338;SDS011;5724;42.684;23.252;2022-07-05T15:07:17;5.50;;;5.00;;
11338;SDS011;5724;42.684;23.252;2022-07-05T15:09:42;6.07;;;5.60;;
11338;SDS011;5724;42.684;23.252;2022-07-05T15:12:08;5.15;;;4.85;;
11338;SDS011;5724;42.684;23.252;2022-07-05T15:14:34;5.10;;;4.80;;
11338;SDS011;5724;42.684;23.252;2022-07-05T15:16:59;5.57;;;5.07;;
11338;SDS011;5724;42.684;23.252;2022-07-05T15:19:24;5.57;;;5.18;;
11338;SDS011;5724;42.684;23.252;2022-07-05T15:21:50;4.85;;;4.55;;